In Rescue
 
Open Full Screen Window  High Contrast Mode
Wind Gusting 00 knots
07
November 29, 2022 10:35 AM EST
Weather Information
Wind Direction
  130 °
Wind Speed
  07 kt (8 mph)
Wind Gust
  00 kt (0 mph)
Altimeter
30.04 in
Visibility
10 SM
Temperature
06° C
43° F
Dewpoint
03° C
37° F
Humidity
81%
Sky Condition
Overcast @ 1,100 ft
MVFR

METAR KPHN 291535Z AUTO 13007KT 10SM OVC011 06/03 A3004 RMK AO2

FAA Disclaimer: The data displayed is for advisory purposes only and is not to be used for flight planning or operations.